Melton Hill Observed Data For Previous 48 Hours

Caption
Day and Hour Reservoir Elevation (behind dam)* Tailwater Elevation (below dam)* Average Hourly Discharge*
11/16/2017 2 AM EST 793.79 738.39 0
11/16/2017 3 AM EST 793.88 738.56 0
11/16/2017 4 AM EST 793.92 738.74 0
11/16/2017 5 AM EST 793.87 738.74 0
11/16/2017 6 AM EST 793.88 738.69 0
11/16/2017 7 AM EST 793.90 738.67 0
11/16/2017 8 AM EST 793.93 738.73 0
11/16/2017 9 AM EST 793.97 738.78 0
11/16/2017 10 AM EST 793.96 738.68 0
11/16/2017 11 AM EST 793.94 738.61 0
11/16/2017 12 PM EST 793.95 738.64 0
11/16/2017 1 PM EST 793.98 738.70 0
11/16/2017 2 PM EST 793.98 738.69 0
11/16/2017 3 PM EST 793.98 738.69 0
11/16/2017 4 PM EST 794.07 738.66 0
11/16/2017 5 PM EST 794.12 738.63 0
11/16/2017 6 PM EST 794.11 738.62 0
11/16/2017 7 PM EST 794.05 738.79 57
11/16/2017 8 PM EST 794.02 739.31 5,598
11/16/2017 9 PM EST 793.97 739.58 6,553
11/16/2017 10 PM EST 793.89 739.34 6,593
11/16/2017 11 PM EST 793.74 739.16 6,587
11/17/2017 12 AM EST 793.73 738.15 1,134
11/17/2017 1 AM EST 793.74 738.27 0
11/17/2017 2 AM EST 793.72 738.76 0
11/17/2017 3 AM EST 793.85 739.10 0
11/17/2017 4 AM EST 793.94 738.96 0
11/17/2017 5 AM EST 794.03 738.82 0
11/17/2017 6 AM EST 793.99 738.83 0
11/17/2017 7 AM EST 793.91 738.90 49
11/17/2017 8 AM EST 793.84 739.70 5,989
11/17/2017 9 AM EST 793.77 739.68 6,551
11/17/2017 10 AM EST 793.75 739.47 6,551
11/17/2017 11 AM EST 793.61 739.29 6,573
11/17/2017 12 PM EST 793.58 738.42 1,257
11/17/2017 1 PM EST 793.60 738.76 0
11/17/2017 2 PM EST 793.57 739.14 0
11/17/2017 3 PM EST 793.78 739.32 0
11/17/2017 4 PM EST 793.82 739.13 0
11/17/2017 5 PM EST 793.83 738.92 0
11/17/2017 6 PM EST 793.79 738.91 0
11/17/2017 7 PM EST 793.80 738.94 0
11/17/2017 8 PM EST 793.80 739.02 0
11/17/2017 9 PM EST 793.85 739.09 0
11/17/2017 10 PM EST 793.85 739.05 0
11/17/2017 11 PM EST 793.82 739.01 0
11/18/2017 12 AM EST 793.82 738.96 0
11/18/2017 1 AM EST 793.86 739.08 0
11/18/2017 2 AM EST 793.88 739.17 0
11/18/2017 3 AM EST 793.98 739.15 0
11/18/2017 4 AM EST 794.00 739.13 0
11/18/2017 5 AM EST 793.99 739.03 0
11/18/2017 6 AM EST 793.99 738.97 0
11/18/2017 7 AM EST 794.00 739.00 0
11/18/2017 8 AM EST 794.02 739.07 0
11/18/2017 9 AM EST 794.04 739.10 0
11/18/2017 10 AM EST 794.03 739.09 0
11/18/2017 11 AM EST 793.86 739.74 2,509

Elevations are in feet above sea level. Discharges are in cubic feet per second and are reported at the end of the hour.